Time;durP1;ratioP1;P1;durP2;ratioP2;P2;SDS_P1;SDS_P2;PMS_P1;PMS_P2;Temp;Humidity;BMP_temperature;BMP_pressure;BME280_temperature;BME280_humidity;BME280_pressure;Samples;Min_cycle;Max_cycle;Signal;HPM_P1;HPM_P2
2021/04/18 00:01:50;;;;;;;9.68;4.47;;;;;;;9.14;84.76;101192.03;5214662;28;20032;-79
2021/04/18 00:04:20;;;;;;;15.88;5.18;;;;;;;9.10;85.11;101187.72;5205563;28;20025;-79
2021/04/18 00:06:51;;;;;;;15.15;4.50;;;;;;;8.97;84.09;101182.78;5213876;28;20080;-79
2021/04/18 00:09:21;;;;;;;12.57;4.38;;;;;;;9.15;84.43;101178.94;5217173;28;20021;-79
2021/04/18 00:11:51;;;;;;;12.90;4.32;;;;;;;9.00;84.14;101180.13;5215436;28;20825;-79
2021/04/18 00:14:24;;;;;;;12.52;4.20;;;;;;;8.93;84.46;101179.38;5217329;28;20074;-79
2021/04/18 00:16:54;;;;;;;11.43;4.18;;;;;;;8.82;84.69;101173.53;5214695;28;20025;-79
2021/04/18 00:19:25;;;;;;;11.05;4.18;;;;;;;8.91;83.90;101172.50;5207856;28;20021;-79
2021/04/18 00:21:55;;;;;;;10.10;4.10;;;;;;;8.95;84.22;101179.34;5208684;28;20059;-79
2021/04/18 00:24:25;;;;;;;10.20;4.05;;;;;;;9.01;83.75;101180.09;5204356;28;20100;-79
2021/04/18 00:26:56;;;;;;;14.05;4.32;;;;;;;8.88;83.71;101181.22;5210547;28;20033;-79
2021/04/18 00:29:26;;;;;;;10.85;4.05;;;;;;;8.85;83.93;101178.69;5206066;28;20029;-79
2021/04/18 00:31:56;;;;;;;11.18;4.18;;;;;;;8.90;83.81;101182.06;5213333;28;20033;-79
2021/04/18 00:34:26;;;;;;;13.38;3.80;;;;;;;8.80;84.50;101180.53;5212683;28;20682;-79
2021/04/18 00:36:57;;;;;;;12.45;3.70;;;;;;;8.84;83.89;101181.31;5216575;28;20021;-79
2021/04/18 00:39:27;;;;;;;10.93;4.03;;;;;;;8.83;83.86;101179.59;5228612;28;20086;-78
2021/04/18 00:41:57;;;;;;;10.30;4.10;;;;;;;8.91;84.09;101173.34;5213300;28;20548;-78
2021/04/18 00:44:27;;;;;;;10.68;3.53;;;;;;;8.99;83.80;101170.59;5201633;28;20018;-78
2021/04/18 00:46:58;;;;;;;10.35;4.03;;;;;;;8.92;83.98;101169.84;5211968;28;20043;-79
2021/04/18 00:49:28;;;;;;;12.40;4.22;;;;;;;8.75;84.75;101171.91;5215789;28;20036;-78
2021/04/18 00:51:59;;;;;;;14.77;4.07;;;;;;;8.50;85.21;101169.78;5211919;28;20049;-79
2021/04/18 00:54:29;;;;;;;11.07;3.80;;;;;;;8.31;85.57;101173.59;5203350;28;20091;-78
2021/04/18 00:56:59;;;;;;;10.38;3.90;;;;;;;8.55;85.81;101174.03;5219369;28;20031;-78
2021/04/18 00:59:30;;;;;;;10.13;3.92;;;;;;;8.61;84.67;101176.53;5213277;28;20053;-78
2021/04/18 01:02:00;;;;;;;13.98;4.28;;;;;;;8.51;85.29;101177.56;5210018;28;20092;-78
2021/04/18 01:04:31;;;;;;;10.60;4.05;;;;;;;8.35;85.31;101173.50;5211512;28;20025;-78
2021/04/18 01:07:01;;;;;;;9.93;3.67;;;;;;;8.44;85.34;101170.78;5210649;28;20025;-79
2021/04/18 01:09:32;;;;;;;11.88;4.00;;;;;;;8.44;84.88;101162.97;5214529;28;20084;-78
2021/04/18 01:12:02;;;;;;;13.50;3.65;;;;;;;8.28;85.32;101174.53;5214062;28;20051;-79
2021/04/18 01:14:32;;;;;;;14.10;3.83;;;;;;;8.29;85.61;101168.41;5212699;28;20049;-79
2021/04/18 01:17:03;;;;;;;11.35;3.67;;;;;;;8.39;84.88;101166.53;5208009;28;20491;-78
2021/04/18 01:19:33;;;;;;;10.18;4.10;;;;;;;8.35;84.94;101155.28;5215220;28;20184;-79
2021/04/18 01:22:04;;;;;;;9.80;3.63;;;;;;;8.27;85.45;101162.38;5212498;28;20095;-78
2021/04/18 01:24:34;;;;;;;10.73;4.07;;;;;;;8.38;85.35;101170.00;5229453;28;20052;-79
2021/04/18 01:27:06;;;;;;;16.45;4.53;;;;;;;8.21;86.27;101165.06;5212700;28;20036;-78
2021/04/18 01:29:36;;;;;;;8.85;3.60;;;;;;;8.44;85.01;101169.91;5230924;28;20067;-79
2021/04/18 01:32:07;;;;;;;9.93;4.30;;;;;;;8.42;85.34;101175.13;5228646;28;20080;-79
2021/04/18 01:34:45;;;;;;;15.23;4.13;;;;;;;8.48;84.99;101169.81;5211898;28;20040;-79
2021/04/18 01:37:19;;;;;;;14.73;4.10;;;;;;;8.22;86.44;101172.00;5209276;28;20754;-78
2021/04/18 01:39:49;;;;;;;15.02;4.28;;;;;;;8.29;86.84;101163.22;5211180;28;20028;-79
2021/04/18 01:42:20;;;;;;;9.30;3.90;;;;;;;8.29;85.94;101165.81;5212827;28;20021;-78
2021/04/18 01:44:50;;;;;;;12.30;3.92;;;;;;;8.30;86.67;101167.53;5216460;28;20562;-79
2021/04/18 01:47:20;;;;;;;11.23;3.97;;;;;;;8.22;86.44;101164.19;5213313;28;20025;-79
2021/04/18 01:49:51;;;;;;;8.82;3.88;;;;;;;8.37;86.55;101165.69;5216795;28;20198;-79
2021/04/18 01:52:21;;;;;;;13.07;4.28;;;;;;;8.11;87.67;101160.88;5208998;28;20033;-79
2021/04/18 01:54:52;;;;;;;8.98;4.13;;;;;;;8.25;87.29;101169.34;5208240;28;20024;-79
2021/04/18 01:57:22;;;;;;;10.32;4.60;;;;;;;8.20;87.19;101168.56;5210892;28;20037;-79
2021/04/18 01:59:52;;;;;;;11.88;4.40;;;;;;;8.18;87.36;101170.34;5218568;28;20084;-79
2021/04/18 02:02:23;;;;;;;11.23;4.28;;;;;;;8.27;86.79;101166.72;5217685;28;20029;-79
2021/04/18 02:04:53;;;;;;;11.88;4.20;;;;;;;8.20;87.25;101163.34;5216575;28;20107;-78
2021/04/18 02:07:24;;;;;;;12.32;4.30;;;;;;;8.25;87.45;101174.53;5214423;28;20025;-79
2021/04/18 02:09:54;;;;;;;12.82;4.30;;;;;;;8.23;87.19;101165.91;5210803;28;20104;-79
2021/04/18 02:12:24;;;;;;;13.15;4.35;;;;;;;8.09;88.21;101167.88;5218049;28;20061;-78
2021/04/18 02:14:55;;;;;;;10.35;4.57;;;;;;;8.07;87.58;101169.59;5217190;28;20075;-78
2021/04/18 02:17:25;;;;;;;14.23;4.65;;;;;;;8.13;88.03;101168.66;5217872;28;20039;-78
2021/04/18 02:19:56;;;;;;;9.30;3.97;;;;;;;8.13;87.76;101164.31;5216343;28;20026;-78
2021/04/18 02:22:26;;;;;;;10.98;4.13;;;;;;;8.09;87.93;101170.47;5232302;28;20112;-78
2021/04/18 02:24:57;;;;;;;11.13;4.10;;;;;;;8.10;88.45;101169.59;5223437;28;20246;-79
2021/04/18 02:27:27;;;;;;;9.20;4.05;;;;;;;8.07;88.31;101172.19;5216023;28;20060;-79
2021/04/18 02:29:58;;;;;;;8.95;4.15;;;;;;;7.84;90.07;101166.50;5215386;28;20489;-79
2021/04/18 02:32:28;;;;;;;15.55;4.50;;;;;;;7.93;89.10;101170.72;5211350;28;20109;-79
2021/04/18 02:34:59;;;;;;;13.95;4.60;;;;;;;7.90;88.97;101175.97;5232715;28;20021;-79
2021/04/18 02:37:29;;;;;;;13.98;4.55;;;;;;;8.03;88.80;101173.16;5215696;28;20044;-79
2021/04/18 02:39:59;;;;;;;15.18;4.88;;;;;;;7.91;89.18;101168.13;5217652;28;20028;-79
2021/04/18 02:42:30;;;;;;;9.80;4.43;;;;;;;7.88;89.78;101169.94;5214704;28;20044;-79
2021/04/18 02:45:00;;;;;;;14.23;4.45;;;;;;;7.98;89.65;101154.16;5211636;28;20021;-79
2021/04/18 02:47:30;;;;;;;13.48;5.00;;;;;;;8.06;89.00;101162.69;5216783;28;20100;-79
2021/04/18 02:50:01;;;;;;;10.65;4.38;;;;;;;7.98;90.01;101164.56;5217073;28;20021;-79
2021/04/18 02:52:32;;;;;;;10.95;4.57;;;;;;;7.79;91.12;101163.13;5215796;28;20033;-79
2021/04/18 02:55:03;;;;;;;14.18;4.60;;;;;;;7.82;91.09;101168.28;5212471;28;20025;-79
2021/04/18 02:57:33;;;;;;;11.02;4.78;;;;;;;7.75;91.89;101166.66;5218986;28;20034;-79
2021/04/18 03:00:04;;;;;;;12.95;4.10;;;;;;;7.98;90.86;101168.88;5213626;28;20026;-79
2021/04/18 03:02:34;;;;;;;13.57;4.72;;;;;;;8.02;90.63;101173.19;5215964;28;20103;-79
2021/04/18 03:05:05;;;;;;;14.57;5.10;;;;;;;7.95;90.34;101176.75;5229799;28;20056;-79
2021/04/18 03:07:35;;;;;;;15.40;5.22;;;;;;;7.87;91.34;101171.66;5211909;28;20033;-79
2021/04/18 03:10:06;;;;;;;17.27;5.03;;;;;;;8.11;90.84;101160.88;5216317;28;20029;-79
2021/04/18 03:12:36;;;;;;;11.25;4.80;;;;;;;8.20;90.00;101162.50;5216909;28;20067;-79
2021/04/18 03:15:08;;;;;;;12.00;4.80;;;;;;;8.30;90.50;101162.31;5217631;28;20555;-79
2021/04/18 03:17:38;;;;;;;18.17;5.40;;;;;;;8.32;90.18;101164.88;5216237;28;20772;-79
2021/04/18 03:20:09;;;;;;;14.68;5.50;;;;;;;8.21;90.52;101172.88;5217050;28;20033;-78
2021/04/18 03:22:39;;;;;;;13.55;5.55;;;;;;;8.03;91.73;101173.16;5211683;28;20085;-79
2021/04/18 03:25:11;;;;;;;14.00;5.57;;;;;;;8.06;91.39;101172.25;5210193;28;20075;-79
2021/04/18 03:27:41;;;;;;;13.75;5.35;;;;;;;8.00;91.45;101164.50;5214833;28;20032;-79
2021/04/18 03:30:12;;;;;;;13.95;5.32;;;;;;;8.16;90.87;101166.88;5210035;28;20458;-79
2021/04/18 03:32:42;;;;;;;13.60;5.40;;;;;;;8.17;91.21;101165.09;5219720;28;20063;-80
2021/04/18 03:35:13;;;;;;;15.48;5.90;;;;;;;8.21;91.16;101159.88;5210766;28;20068;-79
2021/04/18 03:37:44;;;;;;;12.38;6.00;;;;;;;8.02;92.46;101165.38;5214853;28;20037;-78
2021/04/18 03:40:14;;;;;;;12.13;6.07;;;;;;;8.10;92.86;101169.59;5218686;28;20028;-79
2021/04/18 03:42:44;;;;;;;13.43;6.18;;;;;;;8.13;92.05;101163.44;5231052;28;20108;-79
2021/04/18 03:45:16;;;;;;;13.90;6.00;;;;;;;8.19;92.90;101166.84;5221086;28;20016;-80
2021/04/18 03:47:47;;;;;;;14.25;6.50;;;;;;;8.28;92.52;101165.84;5211388;28;20022;-80
2021/04/18 03:50:17;;;;;;;20.38;6.38;;;;;;;8.04;93.16;101169.66;5220660;28;20405;-79
2021/04/18 03:52:48;;;;;;;13.70;6.30;;;;;;;8.19;93.20;101173.81;5211759;28;20036;-79
2021/04/18 03:55:19;;;;;;;13.23;6.30;;;;;;;8.23;93.02;101176.31;5210715;28;20033;-79
2021/04/18 03:57:49;;;;;;;11.55;6.30;;;;;;;8.20;92.56;101181.56;5214797;28;20520;-80
2021/04/18 04:00:21;;;;;;;15.02;6.35;;;;;;;8.21;92.89;101187.66;5215439;28;20511;-78
2021/04/18 04:02:51;;;;;;;12.88;6.18;;;;;;;8.21;92.89;101179.84;5217680;28;20025;-80
2021/04/18 04:05:21;;;;;;;14.35;7.13;;;;;;;8.14;93.16;101171.25;5205628;28;20556;-79
2021/04/18 04:07:52;;;;;;;17.20;6.97;;;;;;;8.13;93.30;101179.94;5212173;28;20029;-80
2021/04/18 04:10:22;;;;;;;17.35;7.20;;;;;;;8.08;93.84;101181.72;5214973;28;20029;-79
2021/04/18 04:12:52;;;;;;;18.77;7.50;;;;;;;8.09;94.06;101188.69;5217469;28;20025;-79
2021/04/18 04:15:23;;;;;;;14.30;7.93;;;;;;;8.18;94.74;101187.72;5214705;28;20028;-79
2021/04/18 04:17:53;;;;;;;17.05;7.80;;;;;;;8.25;94.90;101179.75;5220762;23;20033;-78
2021/04/18 04:20:23;;;;;;;15.80;7.97;;;;;;;8.25;94.69;101184.13;5206582;28;20032;-78
2021/04/18 04:22:53;;;;;;;18.33;8.50;;;;;;;8.31;94.87;101184.88;5206068;28;20061;-78
2021/04/18 04:25:24;;;;;;;17.38;8.93;;;;;;;8.20;95.26;101178.97;5211530;28;20034;-78
2021/04/18 04:27:55;;;;;;;20.80;9.60;;;;;;;8.06;96.82;101183.50;5204413;28;20064;-78
2021/04/18 04:30:26;;;;;;;24.23;10.88;;;;;;;7.99;98.31;101187.09;5213808;28;20083;-78
2021/04/18 04:32:56;;;;;;;19.52;9.70;;;;;;;8.27;97.61;101179.75;5215019;28;20048;-78
2021/04/18 04:35:26;;;;;;;19.60;9.73;;;;;;;8.32;97.55;101180.50;5202210;28;20466;-78
2021/04/18 04:37:58;;;;;;;17.08;9.55;;;;;;;8.10;98.73;101177.38;5214786;28;20033;-78
2021/04/18 04:40:28;;;;;;;32.90;11.27;;;;;;;7.99;99.16;101168.00;5203010;28;20039;-78
2021/04/18 04:42:59;;;;;;;25.05;10.50;;;;;;;8.06;98.48;101167.88;5214786;28;20017;-78
2021/04/18 04:45:29;;;;;;;27.52;10.45;;;;;;;8.05;98.29;101166.16;5202775;28;20017;-78
2021/04/18 04:47:59;;;;;;;22.00;10.18;;;;;;;8.02;99.26;101171.44;5204441;28;20032;-78
2021/04/18 04:50:30;;;;;;;25.20;11.02;;;;;;;7.92;100.00;101179.41;5208682;28;20033;-78
2021/04/18 04:53:00;;;;;;;24.05;10.95;;;;;;;7.98;100.00;101179.31;5205463;28;20049;-78
2021/04/18 04:55:30;;;;;;;27.38;11.63;;;;;;;8.03;99.41;101178.34;5205701;28;20091;-78
2021/04/18 04:58:01;;;;;;;22.88;10.85;;;;;;;8.16;99.24;101182.50;5204305;28;20049;-77
2021/04/18 05:00:31;;;;;;;23.42;11.35;;;;;;;8.20;99.45;101180.75;5203900;28;20390;-78
2021/04/18 05:03:01;;;;;;;26.88;11.73;;;;;;;8.05;98.66;101176.56;5201223;28;20074;-78
2021/04/18 05:05:32;;;;;;;26.55;12.05;;;;;;;8.13;98.91;101179.94;5204957;28;20041;-78
2021/04/18 05:08:02;;;;;;;20.27;10.90;;;;;;;8.14;99.22;101189.47;5208375;28;20116;-78
2021/04/18 05:10:33;;;;;;;25.50;11.30;;;;;;;8.06;99.97;101188.72;5202660;28;20032;-78
2021/04/18 05:13:03;;;;;;;27.50;11.10;;;;;;;8.00;99.66;101194.03;5204658;28;20394;-78
2021/04/18 05:15:33;;;;;;;22.73;10.93;;;;;;;7.80;100.00;101200.38;5214407;28;20106;-78
2021/04/18 05:18:04;;;;;;;28.80;11.15;;;;;;;7.82;100.00;101203.84;5203042;28;20083;-78
2021/04/18 05:20:34;;;;;;;27.88;11.48;;;;;;;7.90;100.00;101205.44;5214912;28;20509;-79
2021/04/18 05:23:04;;;;;;;27.33;11.02;;;;;;;7.92;100.00;101203.69;5205568;28;20029;-78
2021/04/18 05:25:35;;;;;;;25.10;11.70;;;;;;;7.69;100.00;101200.56;5204681;28;20037;-78
2021/04/18 05:28:05;;;;;;;26.45;11.25;;;;;;;8.01;100.00;101200.09;5204014;28;20457;-78
2021/04/18 05:30:35;;;;;;;26.77;11.15;;;;;;;8.11;98.85;101197.31;5210920;28;20037;-78
2021/04/18 05:33:06;;;;;;;20.27;9.95;;;;;;;8.14;99.90;101192.06;5210186;28;20056;-78
2021/04/18 05:35:37;;;;;;;24.10;10.10;;;;;;;8.31;98.28;101189.22;5215304;28;20040;-79
2021/04/18 05:38:07;;;;;;;21.52;10.63;;;;;;;8.35;98.33;101194.34;5223447;28;20032;-78
2021/04/18 05:40:37;;;;;;;25.42;10.82;;;;;;;8.19;98.01;101200.69;5209450;28;20108;-78
2021/04/18 05:43:09;;;;;;;20.20;10.93;;;;;;;8.33;98.12;101203.94;5207589;28;20116;-78
2021/04/18 05:45:40;;;;;;;26.60;11.82;;;;;;;8.28;98.67;101216.19;5211325;28;20029;-78
2021/04/18 05:48:10;;;;;;;26.80;11.65;;;;;;;8.25;98.90;101217.97;5210494;28;20025;-78
2021/04/18 05:50:43;;;;;;;25.13;12.00;;;;;;;8.15;99.56;101217.22;5208909;28;20029;-79
2021/04/18 05:53:14;;;;;;;26.17;11.20;;;;;;;8.29;99.29;101212.69;5211615;28;20033;-78
2021/04/18 05:55:44;;;;;;;28.20;12.60;;;;;;;7.83;100.00;101206.41;5207487;28;20037;-78
2021/04/18 05:58:16;;;;;;;25.88;11.63;;;;;;;8.03;100.00;101214.78;5206441;28;20037;-78
2021/04/18 06:00:46;;;;;;;24.85;12.23;;;;;;;7.94;100.00;101209.75;5207227;28;20041;-78
2021/04/18 06:03:16;;;;;;;25.92;11.55;;;;;;;8.36;99.80;101203.88;5214393;28;20031;-79
2021/04/18 06:05:47;;;;;;;23.88;11.63;;;;;;;8.17;99.63;101202.44;5211862;28;20143;-78
2021/04/18 06:08:17;;;;;;;21.55;12.13;;;;;;;8.15;100.00;101201.59;5213012;28;20033;-78
2021/04/18 06:10:47;;;;;;;26.25;12.27;;;;;;;8.18;100.00;101205.94;5214887;28;20551;-79
2021/04/18 06:13:18;;;;;;;23.30;12.10;;;;;;;8.08;100.00;101207.75;5209934;28;20033;-79
2021/04/18 06:15:48;;;;;;;25.13;11.85;;;;;;;8.42;100.00;101208.97;5209953;28;20485;-78
2021/04/18 06:18:18;;;;;;;23.85;12.55;;;;;;;8.52;99.59;101210.56;5209082;28;20037;-78
2021/04/18 06:20:49;;;;;;;28.10;13.23;;;;;;;8.15;100.00;101209.41;5206711;28;20032;-78
2021/04/18 06:23:19;;;;;;;26.45;12.90;;;;;;;8.09;100.00;101212.13;5205286;28;20044;-78
2021/04/18 06:25:49;;;;;;;26.13;13.13;;;;;;;8.35;100.00;101202.16;5219438;28;20410;-78
2021/04/18 06:28:21;;;;;;;26.80;12.30;;;;;;;8.66;98.79;101203.38;5211745;28;20099;-78
2021/04/18 06:30:51;;;;;;;26.67;12.95;;;;;;;8.50;99.99;101207.13;5205903;28;20391;-78
2021/04/18 06:33:22;;;;;;;25.77;12.68;;;;;;;8.55;98.65;101204.44;5202149;28;20048;-78
2021/04/18 06:35:52;;;;;;;26.05;12.32;;;;;;;8.78;97.53;101205.75;5208953;28;20021;-78
2021/04/18 06:38:22;;;;;;;24.60;12.65;;;;;;;8.72;97.70;101203.25;5219581;28;20021;-78
2021/04/18 06:40:53;;;;;;;27.85;12.95;;;;;;;8.88;97.76;101193.41;5216680;28;20048;-78
2021/04/18 06:43:24;;;;;;;26.15;12.80;;;;;;;8.92;96.83;101190.69;5204815;28;20487;-78
2021/04/18 06:45:54;;;;;;;22.92;12.65;;;;;;;9.11;95.41;101180.78;5210826;28;20036;-78
2021/04/18 06:48:27;;;;;;;22.13;12.35;;;;;;;9.42;95.13;101183.59;5200975;28;20487;-78
2021/04/18 06:50:58;;;;;;;22.67;12.00;;;;;;;9.61;93.12;101189.25;5206825;28;20449;-78
2021/04/18 06:53:29;;;;;;;21.02;12.05;;;;;;;9.69;93.06;101189.97;5203816;28;20115;-78
2021/04/18 06:56:03;;;;;;;22.80;12.43;;;;;;;9.52;93.76;101195.53;5205270;28;20081;-78
2021/04/18 06:58:33;;;;;;;24.08;12.73;;;;;;;8.88;97.15;101203.84;5215678;28;20029;-78
2021/04/18 07:01:04;;;;;;;22.63;12.82;;;;;;;9.02;96.05;101201.81;5218494;28;20036;-78
2021/04/18 07:03:35;;;;;;;29.58;13.10;;;;;;;8.58;99.60;101207.84;5217474;28;20037;-78
2021/04/18 07:06:07;;;;;;;26.35;13.43;;;;;;;8.64;98.53;101205.13;5211691;28;20085;-78
2021/04/18 07:08:38;;;;;;;26.33;12.98;;;;;;;8.84;98.43;101213.44;5207201;28;20029;-78
2021/04/18 07:11:19;;;;;;;30.45;13.52;;;;;;;8.76;98.32;101210.09;5207375;28;20041;-78
2021/04/18 07:13:49;;;;;;;22.65;13.32;;;;;;;8.66;99.30;101212.91;5211650;28;20024;-78
2021/04/18 07:16:27;;;;;;;28.35;14.10;;;;;;;9.06;96.75;101209.53;5208981;28;20170;-78
2021/04/18 07:18:58;;;;;;;25.85;13.43;;;;;;;9.01;96.37;101207.91;5216211;28;20526;-79
2021/04/18 07:21:46;;;;;;;24.00;13.10;;;;;;;8.96;97.05;101208.03;5216180;28;20033;-78
2021/04/18 07:24:17;;;;;;;22.92;13.07;;;;;;;9.46;94.92;101205.25;5208996;28;20037;-78
2021/04/18 07:26:57;;;;;;;20.98;12.85;;;;;;;9.53;94.42;101204.22;5216666;28;20056;-78
2021/04/18 07:29:30;;;;;;;20.75;12.75;;;;;;;9.56;93.34;101194.59;5200131;28;20120;-78
2021/04/18 07:32:17;;;;;;;21.08;12.07;;;;;;;9.71;92.15;101196.00;5212622;28;20104;-78
2021/04/18 07:34:48;;;;;;;23.25;11.60;;;;;;;9.78;92.91;101194.97;5205230;28;20119;-78
2021/04/18 07:37:27;;;;;;;20.75;12.10;;;;;;;9.73;91.51;101189.00;5221904;28;20109;-79
2021/04/18 07:39:59;;;;;;;19.95;11.55;;;;;;;10.09;91.44;101186.44;5216019;28;20022;-79
2021/04/18 07:42:36;;;;;;;18.88;12.02;;;;;;;10.26;89.56;101180.78;5209322;28;20029;-78
2021/04/18 07:45:12;;;;;;;19.23;11.73;;;;;;;10.26;89.65;101171.22;5213716;28;20068;-79
2021/04/18 07:47:44;;;;;;;19.73;12.40;;;;;;;9.92;93.05;101193.78;5209326;28;20064;-78
2021/04/18 07:50:20;;;;;;;17.30;12.00;;;;;;;9.87;92.01;101193.03;5210548;28;20929;-78
2021/04/18 07:52:51;;;;;;;21.77;12.73;;;;;;;9.33;94.78;101202.03;5213883;28;20033;-79
2021/04/18 07:55:21;;;;;;;20.98;13.05;;;;;;;9.24;95.99;101196.13;5210627;28;20590;-79
2021/04/18 07:57:52;;;;;;;20.17;12.73;;;;;;;9.36;96.57;101195.91;5210799;28;20029;-78
2021/04/18 08:00:23;;;;;;;22.40;12.70;;;;;;;9.60;93.33;101193.63;5220996;28;20039;-78
2021/04/18 08:02:54;;;;;;;19.98;12.00;;;;;;;9.62;92.88;101191.00;5214958;28;20112;-79
2021/04/18 08:05:29;;;;;;;18.45;11.05;;;;;;;9.54;93.35;101198.13;5214465;28;20080;-77
2021/04/18 08:08:14;;;;;;;18.08;11.35;;;;;;;10.08;91.09;101189.94;5211997;28;20088;-78
2021/04/18 08:10:46;;;;;;;21.27;11.48;;;;;;;10.23;89.53;101186.09;5209259;28;20029;-78
2021/04/18 08:13:19;;;;;;;21.77;11.30;;;;;;;9.95;90.71;101192.81;5210603;28;20031;-78
2021/04/18 08:15:53;;;;;;;21.15;11.52;;;;;;;9.90;91.07;101198.19;5211917;28;20061;-79
2021/04/18 08:18:32;;;;;;;22.15;12.20;;;;;;;9.26;94.95;101196.97;5218115;28;20033;-79
2021/04/18 08:21:30;;;;;;;22.58;12.75;;;;;;;8.85;96.69;101198.66;5219140;28;20095;-78
2021/04/18 08:24:02;;;;;;;18.23;11.68;;;;;;;9.28;95.38;101195.22;5205886;28;20017;-80
2021/04/18 08:26:35;;;;;;;21.38;11.90;;;;;;;9.81;92.39;101192.31;5216605;28;20025;-79
2021/04/18 08:29:08;;;;;;;15.93;10.38;;;;;;;10.09;89.65;101172.50;5218411;28;20040;-79
2021/04/18 08:31:54;;;;;;;18.20;11.52;;;;;;;9.48;93.28;101174.78;5218989;28;20699;-78
2021/04/18 08:34:25;;;;;;;;;;;;;;;9.93;91.50;101179.81;5214165;28;20648;-78
2021/04/18 08:36:57;;;;;;;21.27;11.67;;;;;;;9.71;92.49;101181.22;5219929;28;20003;-79
2021/04/18 08:39:38;;;;;;;19.70;11.85;;;;;;;9.82;92.86;101188.81;5216344;28;20275;-79
2021/04/18 08:42:24;;;;;;;20.77;11.35;;;;;;;10.14;90.10;101186.34;5218480;28;20477;-80
2021/04/18 08:44:55;;;;;;;17.02;11.32;;;;;;;10.34;90.45;101184.94;5218323;28;20094;-79
2021/04/18 08:47:29;;;;;;;22.85;11.88;;;;;;;9.83;92.70;101193.97;5213851;28;20094;-78
2021/04/18 08:50:10;;;;;;;20.63;12.07;;;;;;;9.56;93.06;101197.22;5223989;28;20028;-78
2021/04/18 08:52:41;;;;;;;21.10;12.25;;;;;;;9.75;93.12;101197.66;5213760;28;20090;-80
2021/04/18 08:55:14;;;;;;;24.73;12.38;;;;;;;9.87;92.33;101198.25;5209050;28;20021;-79
2021/04/18 08:57:44;;;;;;;23.33;12.38;;;;;;;9.84;92.50;101198.28;5206091;28;20034;-79
2021/04/18 09:00:15;;;;;;;21.45;12.23;;;;;;;10.11;90.71;101191.59;5210348;28;20040;-78
2021/04/18 09:02:55;;;;;;;22.13;12.45;;;;;;;10.48;89.69;101187.22;5212618;28;20067;-79
2021/04/18 09:05:26;;;;;;;21.85;12.35;;;;;;;10.50;90.82;101185.41;5223154;28;20690;-79
2021/04/18 09:08:03;;;;;;;22.70;12.63;;;;;;;10.39;90.40;101193.53;5222674;28;20065;-79
2021/04/18 09:10:35;;;;;;;22.52;11.65;;;;;;;10.86;88.05;101193.13;5220656;28;20021;-80
2021/04/18 09:13:05;;;;;;;21.13;11.57;;;;;;;10.62;89.15;101192.94;5215680;28;20028;-78
2021/04/18 09:15:36;;;;;;;23.42;12.25;;;;;;;10.19;89.88;101194.91;5216351;28;20391;-79
2021/04/18 09:18:06;;;;;;;20.85;11.50;;;;;;;10.60;89.85;101192.13;5217839;28;20021;-79
2021/04/18 09:20:36;;;;;;;20.00;11.38;;;;;;;10.77;87.18;101196.03;5216110;28;20029;-80
2021/04/18 09:23:07;;;;;;;19.00;11.73;;;;;;;11.08;85.11;101192.53;5224852;28;20047;-80
2021/04/18 09:25:37;;;;;;;18.55;11.23;;;;;;;11.52;84.59;101189.50;5229088;28;20027;-79
2021/04/18 09:28:11;;;;;;;20.83;11.27;;;;;;;11.38;84.29;101194.28;5222030;28;20535;-80
2021/04/18 09:30:42;;;;;;;18.77;11.35;;;;;;;11.62;84.86;101190.13;5218902;28;20526;-79
2021/04/18 09:33:12;;;;;;;18.77;10.85;;;;;;;11.75;83.06;101200.16;5223833;28;20037;-80
2021/04/18 09:35:52;;;;;;;19.45;11.02;;;;;;;11.90;83.23;101204.94;5227255;28;20745;-78
2021/04/18 09:38:23;;;;;;;22.98;11.05;;;;;;;11.74;83.16;101200.19;5218449;28;20056;-77
2021/04/18 09:40:53;;;;;;;18.35;10.85;;;;;;;11.45;83.90;101202.81;5218412;28;20029;-78
2021/04/18 09:43:23;;;;;;;19.55;11.52;;;;;;;11.37;84.35;101210.00;5221898;28;20041;-77
2021/04/18 09:46:00;;;;;;;21.60;11.13;;;;;;;11.16;85.50;101210.63;5216151;28;20021;-77
2021/04/18 09:48:30;;;;;;;23.38;11.20;;;;;;;11.37;84.38;101216.13;5223847;28;20049;-78
2021/04/18 09:51:07;;;;;;;17.50;11.00;;;;;;;11.20;85.87;101214.84;5222244;28;20071;-77
2021/04/18 09:53:37;;;;;;;20.30;11.43;;;;;;;11.29;84.58;101218.06;5211459;28;20072;-78
2021/04/18 09:56:10;;;;;;;18.17;10.30;;;;;;;11.50;84.21;101212.25;5215794;28;20026;-78
2021/04/18 09:58:42;;;;;;;19.17;10.90;;;;;;;11.56;83.52;101212.09;5222738;28;20021;-78
2021/04/18 10:01:41;;;;;;;17.00;10.82;;;;;;;11.14;87.35;101215.88;5220608;28;20024;-78
2021/04/18 10:04:24;;;;;;;18.00;11.07;;;;;;;11.63;84.32;101207.53;5220798;28;20028;-77
2021/04/18 10:06:54;;;;;;;21.73;10.98;;;;;;;11.93;83.31;101202.22;5216657;28;20018;-77
2021/04/18 10:09:25;;;;;;;18.55;10.80;;;;;;;11.40;85.41;101202.94;5207451;28;20044;-77
2021/04/18 10:11:59;;;;;;;18.58;10.88;;;;;;;11.62;83.29;101201.44;5210595;28;20031;-78
2021/04/18 10:14:30;;;;;;;18.63;10.43;;;;;;;12.13;82.08;101194.59;5205815;28;20936;-77
2021/04/18 10:17:00;;;;;;;17.02;10.25;;;;;;;12.86;78.89;101196.47;5213239;28;20029;-78
2021/04/18 10:19:30;;;;;;;20.42;10.82;;;;;;;12.69;79.35;101206.69;5221830;28;20109;-77
2021/04/18 10:22:01;;;;;;;21.10;11.32;;;;;;;12.47;80.18;101199.59;5206528;28;20040;-78
2021/04/18 10:24:48;;;;;;;19.10;11.10;;;;;;;12.88;80.77;101192.03;5207990;28;20045;-78
2021/04/18 10:27:26;;;;;;;18.58;11.02;;;;;;;12.20;81.40;101193.50;5191965;28;20143;-77
2021/04/18 10:29:56;;;;;;;16.63;10.60;;;;;;;12.39;81.46;101194.59;5200820;28;20107;-78
2021/04/18 10:32:27;;;;;;;17.48;9.85;;;;;;;12.99;79.37;101190.78;5207030;28;20033;-78
2021/04/18 10:34:57;;;;;;;17.50;10.32;;;;;;;12.55;79.72;101190.56;5211056;28;20052;-78
2021/04/18 10:37:28;;;;;;;20.00;10.57;;;;;;;13.13;78.40;101191.16;5210915;28;20109;-78
2021/04/18 10:39:59;;;;;;;18.83;10.63;;;;;;;13.44;77.75;101191.69;5207719;28;20529;-78
2021/04/18 10:42:29;;;;;;;15.52;10.27;;;;;;;13.30;78.60;101196.63;5201234;28;20053;-79
2021/04/18 10:44:59;;;;;;;15.38;10.43;;;;;;;13.19;78.04;101190.91;5215728;28;20120;-79
2021/04/18 10:47:29;;;;;;;16.80;10.55;;;;;;;12.88;78.49;101189.41;5214694;28;20029;-78
2021/04/18 10:50:02;;;;;;;18.83;11.13;;;;;;;12.19;80.32;101188.28;5213063;28;20076;-78
2021/04/18 10:52:32;;;;;;;20.50;11.63;;;;;;;12.38;80.54;101190.28;5201109;28;20128;-78
2021/04/18 10:55:03;;;;;;;22.38;10.65;;;;;;;13.02;78.94;101193.28;5204765;28;20029;-77
2021/04/18 10:57:34;;;;;;;18.05;11.07;;;;;;;12.90;78.33;101182.34;5204636;28;20025;-79
2021/04/18 11:00:06;;;;;;;19.05;11.35;;;;;;;12.87;78.29;101186.84;5207858;28;20045;-79
2021/04/18 11:02:36;;;;;;;18.65;11.35;;;;;;;12.94;80.60;101191.84;5212475;28;20024;-78
2021/04/18 11:05:07;;;;;;;21.00;11.77;;;;;;;12.66;79.64;101184.97;5213448;28;20036;-78
2021/04/18 11:07:37;;;;;;;18.33;12.20;;;;;;;13.27;78.81;101185.38;5207998;28;20748;-78
2021/04/18 11:10:08;;;;;;;20.17;12.07;;;;;;;13.33;76.42;101190.41;5220697;28;20047;-78
2021/04/18 11:12:41;;;;;;;21.92;12.60;;;;;;;13.00;78.54;101194.25;5216222;28;20103;-78
2021/04/18 11:15:12;;;;;;;20.70;13.35;;;;;;;13.41;78.54;101178.69;5209967;28;20045;-78
2021/04/18 11:17:44;;;;;;;20.70;13.23;;;;;;;13.03;78.77;101178.41;5205585;28;20498;-78
2021/04/18 11:20:14;;;;;;;21.13;13.68;;;;;;;13.06;77.97;101178.28;5214777;28;20045;-78
2021/04/18 11:22:45;;;;;;;21.20;13.43;;;;;;;12.96;78.32;101173.44;5206643;28;20503;-78
2021/04/18 11:25:15;;;;;;;22.73;13.93;;;;;;;13.35;78.63;101178.94;5197081;28;20049;-78
2021/04/18 11:27:47;;;;;;;22.35;14.50;;;;;;;13.31;78.59;101185.22;5201533;28;20025;-79
2021/04/18 11:30:18;;;;;;;20.90;13.20;;;;;;;13.49;77.99;101178.41;5197862;28;20087;-79
2021/04/18 11:32:48;;;;;;;24.75;13.90;;;;;;;13.59;76.63;101171.91;5196145;28;20112;-79
2021/04/18 11:35:18;;;;;;;23.70;15.02;;;;;;;13.47;77.07;101172.38;5192532;28;20033;-79
2021/04/18 11:37:50;;;;;;;21.02;13.48;;;;;;;12.96;79.30;101169.03;5219492;28;20041;-78
2021/04/18 11:40:20;;;;;;;24.75;13.82;;;;;;;12.82;79.62;101159.91;5203787;28;20029;-79